Time;durP1;ratioP1;P1;durP2;ratioP2;P2;SDS_P1;SDS_P2;PMS_P1;PMS_P2;Temp;Humidity;BMP_temperature;BMP_pressure;BME280_temperature;BME280_humidity;BME280_pressure;Samples;Min_cycle;Max_cycle;Signal;HPM_P1;HPM_P2
2021/01/16 00:01:53;;;;;;;2.63;2.20;;;-4.90;96.30;;;;;;4964664;28;20193;-82
2021/01/16 00:04:18;;;;;;;6.00;2.47;;;-5.00;96.30;;;;;;4983219;28;20516;-81
2021/01/16 00:06:44;;;;;;;5.27;3.63;;;-5.00;96.30;;;;;;4965177;28;20421;-82
2021/01/16 00:09:09;;;;;;;2.90;2.50;;;-5.00;96.30;;;;;;4965217;28;20250;-81
2021/01/16 00:11:35;;;;;;;3.97;3.27;;;-5.10;96.30;;;;;;4965619;28;20576;-82
2021/01/16 00:14:00;;;;;;;1.93;1.63;;;-5.10;96.30;;;;;;4981353;28;20285;-82
2021/01/16 00:16:26;;;;;;;4.03;3.57;;;-5.10;96.30;;;;;;4964881;28;20181;-82
2021/01/16 00:18:52;;;;;;;5.23;2.20;;;-5.00;96.30;;;;;;4983763;28;20269;-82
2021/01/16 00:21:17;;;;;;;4.20;3.10;;;-5.10;96.30;;;;;;4982781;28;20174;-82
2021/01/16 00:23:43;;;;;;;4.03;1.90;;;-5.10;96.30;;;;;;4965489;28;20182;-83
2021/01/16 00:26:08;;;;;;;3.20;2.90;;;-5.10;96.30;;;;;;4964616;28;20658;-81
2021/01/16 00:28:34;;;;;;;3.33;2.93;;;-5.10;96.30;;;;;;4982263;28;20175;-82
2021/01/16 00:31:03;;;;;;;3.40;2.27;;;-5.20;96.30;;;;;;4981546;28;20202;-82
2021/01/16 00:33:31;;;;;;;5.83;2.60;;;-5.20;96.30;;;;;;4983370;28;20429;-82
2021/01/16 00:35:58;;;;;;;5.13;4.20;;;-5.20;96.30;;;;;;4965127;28;20501;-82
2021/01/16 00:38:24;;;;;;;3.47;3.17;;;-5.20;96.30;;;;;;4983803;28;20951;-82
2021/01/16 00:40:50;;;;;;;4.00;2.53;;;-5.30;96.30;;;;;;4966142;28;20469;-81
2021/01/16 00:43:16;;;;;;;8.70;3.30;;;-5.30;96.30;;;;;;4983908;28;20841;-82
2021/01/16 00:45:45;;;;;;;3.20;2.23;;;-5.30;96.30;;;;;;4983421;28;20609;-82
2021/01/16 00:48:13;;;;;;;10.20;3.50;;;-5.30;96.30;;;;;;4983881;28;20441;-82
2021/01/16 00:50:39;;;;;;;4.90;3.00;;;-5.40;96.30;;;;;;4982548;28;20565;-82
2021/01/16 00:53:05;;;;;;;3.30;3.00;;;-5.40;96.30;;;;;;4983314;28;20445;-82
2021/01/16 00:55:31;;;;;;;6.23;3.13;;;-5.30;96.30;;;;;;4980973;28;20450;-82
2021/01/16 00:57:56;;;;;;;3.50;2.63;;;-5.30;96.30;;;;;;4965665;28;20424;-82
2021/01/16 05:03:02;;;;;;;2.13;1.43;;;-7.10;96.30;;;;;;4900307;29;20503;-80
2021/01/16 05:05:28;;;;;;;2.90;2.27;;;-7.00;96.30;;;;;;4893977;29;20426;-79
2021/01/16 05:07:54;;;;;;;3.10;2.33;;;-7.00;96.30;;;;;;4893640;29;20762;-79
2021/01/16 05:10:22;;;;;;;3.10;1.80;;;-7.00;96.30;;;;;;4917213;29;20974;-79
2021/01/16 05:13:01;;;;;;;4.70;1.80;;;-7.00;96.30;;;;;;4907339;29;20449;-79
2021/01/16 05:15:30;;;;;;;3.20;2.20;;;-7.00;96.30;;;;;;4898612;29;20472;-79
2021/01/16 05:18:03;;;;;;;2.67;1.93;;;-7.00;96.30;;;;;;4898807;29;20929;-79
2021/01/16 05:20:33;;;;;;;1.43;1.13;;;-7.00;96.30;;;;;;4899464;29;20452;-79
2021/01/16 05:23:11;;;;;;;4.57;2.43;;;-7.00;96.30;;;;;;4916606;29;20425;-79
2021/01/16 05:25:40;;;;;;;2.50;2.00;;;-7.00;96.30;;;;;;4916538;29;20916;-79
2021/01/16 05:28:07;;;;;;;1.93;1.50;;;-7.00;96.30;;;;;;4918371;29;20845;-79
2021/01/16 05:30:49;;;;;;;2.30;2.10;;;-7.00;96.30;;;;;;4918360;29;20507;-79
2021/01/16 05:33:15;;;;;;;3.63;2.33;;;-7.00;96.30;;;;;;4933289;29;20413;-80
2021/01/16 05:35:41;;;;;;;6.47;2.47;;;-7.00;96.30;;;;;;4916982;29;20431;-79
2021/01/16 05:38:07;;;;;;;2.90;2.60;;;-7.00;96.30;;;;;;4922551;29;20420;-79
2021/01/16 05:40:35;;;;;;;2.50;2.20;;;-7.00;96.30;;;;;;4923112;29;20207;-79
2021/01/16 05:43:01;;;;;;;1.97;1.80;;;-7.00;96.30;;;;;;4939159;29;20428;-79
2021/01/16 05:45:28;;;;;;;5.23;2.60;;;-7.00;96.30;;;;;;4924208;29;20484;-79
2021/01/16 05:47:54;;;;;;;4.80;2.60;;;-7.00;96.30;;;;;;4923335;29;20809;-79
2021/01/16 05:50:23;;;;;;;5.50;2.80;;;-7.00;96.30;;;;;;4923310;29;20464;-79
2021/01/16 05:52:49;;;;;;;7.17;3.13;;;-7.00;96.30;;;;;;4924734;29;20452;-79
2021/01/16 05:55:17;;;;;;;6.70;2.43;;;-7.00;96.30;;;;;;4923720;29;20454;-79
2021/01/16 05:57:47;;;;;;;4.00;2.20;;;-7.00;96.30;;;;;;4925346;29;20219;-79
2021/01/16 06:00:23;;;;;;;4.30;3.07;;;-7.00;96.30;;;;;;4927882;29;20460;-79
2021/01/16 06:02:51;;;;;;;7.10;2.97;;;-6.90;96.30;;;;;;4925285;29;20494;-80
2021/01/16 06:05:24;;;;;;;3.93;2.40;;;-7.00;96.30;;;;;;4940518;29;20419;-80
2021/01/16 06:07:51;;;;;;;4.40;2.60;;;-7.00;96.30;;;;;;4924912;29;20540;-79
2021/01/16 06:10:18;;;;;;;4.53;3.10;;;-7.00;96.30;;;;;;4924871;29;20466;-80
2021/01/16 06:12:43;;;;;;;2.77;2.20;;;-6.90;96.30;;;;;;4932118;29;21065;-79
2021/01/16 06:15:14;;;;;;;2.60;1.93;;;-6.90;96.30;;;;;;4940495;29;20419;-79
2021/01/16 06:17:48;;;;;;;3.67;2.30;;;-7.00;96.30;;;;;;4940804;29;20203;-79
2021/01/16 06:20:17;;;;;;;3.10;2.70;;;-7.00;96.30;;;;;;4925046;29;20418;-80
2021/01/16 06:22:43;;;;;;;4.70;3.03;;;-7.00;96.30;;;;;;4940849;29;20470;-80
2021/01/16 06:25:20;;;;;;;4.67;3.13;;;-7.00;96.30;;;;;;4941639;29;20423;-80
2021/01/16 06:27:48;;;;;;;3.80;2.60;;;-7.00;96.30;;;;;;4940628;29;20183;-80
2021/01/16 06:30:16;;;;;;;3.90;3.37;;;-7.00;96.30;;;;;;4940276;29;20466;-79
2021/01/16 06:32:53;;;;;;;2.53;2.20;;;-7.00;96.30;;;;;;4940247;29;20423;-80
2021/01/16 06:35:20;;;;;;;4.40;2.80;;;-7.00;96.30;;;;;;4940519;29;20419;-80
2021/01/16 06:37:47;;;;;;;2.90;2.50;;;-7.00;96.30;;;;;;4942011;29;20443;-79
2021/01/16 06:40:26;;;;;;;6.17;3.10;;;-7.00;96.30;;;;;;4940842;29;20423;-79
2021/01/16 06:42:53;;;;;;;2.60;2.20;;;-7.00;96.30;;;;;;4940664;29;20491;-80
2021/01/16 06:45:22;;;;;;;3.63;3.33;;;-7.00;96.30;;;;;;4940006;29;20419;-79
2021/01/16 06:48:00;;;;;;;3.40;2.87;;;-7.00;96.30;;;;;;4939694;29;20447;-80
2021/01/16 06:50:28;;;;;;;5.20;3.13;;;-7.00;96.30;;;;;;4937493;29;20534;-79
2021/01/16 06:52:54;;;;;;;4.87;3.33;;;-7.00;96.30;;;;;;4937702;29;20507;-80
2021/01/16 06:55:21;;;;;;;2.97;1.80;;;-7.00;96.30;;;;;;4937130;29;20514;-80
2021/01/16 06:57:47;;;;;;;4.40;3.43;;;-7.00;96.30;;;;;;4939197;29;20176;-80
2021/01/16 07:00:14;;;;;;;3.73;2.47;;;-7.00;96.30;;;;;;4937897;29;20919;-80
2021/01/16 07:02:41;;;;;;;6.70;3.10;;;-7.00;96.30;;;;;;4939504;29;20766;-80
2021/01/16 07:05:16;;;;;;;2.77;2.17;;;-6.90;96.30;;;;;;4938532;29;20424;-80
2021/01/16 07:07:46;;;;;;;4.10;3.30;;;-6.90;96.30;;;;;;4940183;29;20414;-80
2021/01/16 07:10:17;;;;;;;6.47;3.83;;;-6.90;96.30;;;;;;4938170;29;20510;-80
2021/01/16 07:12:48;;;;;;;4.10;3.00;;;-6.90;96.30;;;;;;4933006;29;20412;-80
2021/01/16 07:15:16;;;;;;;4.80;3.27;;;-6.90;96.30;;;;;;4938086;29;20408;-79
2021/01/16 07:17:41;;;;;;;6.57;4.30;;;-6.90;96.30;;;;;;4938375;29;20916;-80
2021/01/16 07:20:08;;;;;;;4.53;3.00;;;-6.90;96.30;;;;;;4938424;29;20428;-80
2021/01/16 07:22:38;;;;;;;5.03;3.37;;;-6.90;96.30;;;;;;4938103;29;20184;-79
2021/01/16 07:25:05;;;;;;;4.93;3.23;;;-6.90;96.30;;;;;;4937622;29;20778;-80
2021/01/16 07:27:32;;;;;;;4.60;3.37;;;-6.90;96.30;;;;;;4940746;29;20424;-80
2021/01/16 07:30:00;;;;;;;8.37;3.60;;;-6.90;96.30;;;;;;4940566;29;20435;-80
2021/01/16 07:32:42;;;;;;;5.40;3.53;;;-6.90;96.30;;;;;;4940307;29;20447;-80
2021/01/16 07:35:13;;;;;;;7.90;4.17;;;-6.90;96.30;;;;;;4936292;29;20411;-79
2021/01/16 07:37:41;;;;;;;3.87;3.23;;;-6.90;96.30;;;;;;4937960;29;20412;-79
2021/01/16 07:40:13;;;;;;;5.10;3.30;;;-6.90;96.30;;;;;;4937373;29;20420;-80
2021/01/16 07:42:49;;;;;;;3.70;2.17;;;-6.90;96.30;;;;;;4936044;29;20551;-80
2021/01/16 07:45:45;;;;;;;4.40;3.10;;;-6.90;96.30;;;;;;4937075;29;20484;-80
2021/01/16 07:48:20;;;;;;;4.50;3.43;;;-6.80;96.30;;;;;;4936443;29;20474;-81
2021/01/16 07:50:51;;;;;;;7.60;4.27;;;-6.90;96.30;;;;;;4936087;29;20463;-80
2021/01/16 07:53:26;;;;;;;3.03;2.33;;;-6.80;96.30;;;;;;4936106;29;20451;-80
2021/01/16 07:56:01;;;;;;;5.00;3.70;;;-6.80;96.30;;;;;;4935223;29;20415;-79
2021/01/16 07:58:32;;;;;;;9.80;4.40;;;-6.80;96.30;;;;;;4935927;29;20407;-80
2021/01/16 08:01:16;;;;;;;3.20;2.90;;;-6.70;96.30;;;;;;4935455;29;20467;-79
2021/01/16 08:03:45;;;;;;;6.20;3.80;;;-6.80;96.30;;;;;;4935707;29;20487;-80
2021/01/16 08:06:29;;;;;;;6.20;3.50;;;-6.70;96.30;;;;;;4935390;29;20431;-80
2021/01/16 08:09:05;;;;;;;7.70;4.47;;;-6.80;96.30;;;;;;4935958;29;20423;-80
2021/01/16 08:11:35;;;;;;;3.93;3.53;;;-6.70;96.30;;;;;;4926504;29;20998;-82
2021/01/16 08:14:03;;;;;;;5.00;4.10;;;-6.70;96.30;;;;;;4936836;29;20419;-79
2021/01/16 08:16:28;;;;;;;8.07;4.27;;;-6.60;96.30;;;;;;4937697;29;20813;-79
2021/01/16 08:19:24;;;;;;;2.97;2.10;;;-6.60;96.30;;;;;;4936968;29;20944;-79
2021/01/16 08:21:55;;;;;;;2.73;2.13;;;-6.70;96.30;;;;;;4936186;29;20240;-79
2021/01/16 08:24:22;;;;;;;12.60;3.87;;;-6.60;96.30;;;;;;4912993;29;20463;-79
2021/01/16 08:26:59;;;;;;;3.67;2.90;;;-6.50;96.30;;;;;;4931169;29;20499;-78
2021/01/16 08:29:26;;;;;;;5.67;3.47;;;-6.50;96.30;;;;;;4918068;29;20502;-77
2021/01/16 08:32:12;;;;;;;5.47;3.07;;;-6.50;96.30;;;;;;4917041;29;20493;-77
2021/01/16 08:34:57;;;;;;;5.13;3.03;;;-6.50;96.30;;;;;;4916943;29;20873;-77
2021/01/16 08:37:36;;;;;;;5.07;3.10;;;-6.40;96.30;;;;;;4934283;29;20427;-77
2021/01/16 08:40:08;;;;;;;4.60;3.17;;;-6.40;96.30;;;;;;4924921;29;20451;-77
2021/01/16 08:42:34;;;;;;;3.50;2.60;;;-6.50;96.30;;;;;;4922232;29;20436;-77
2021/01/16 08:45:01;;;;;;;13.13;2.73;;;-6.50;96.30;;;;;;4919992;29;20422;-76
2021/01/16 08:47:26;;;;;;;5.90;2.50;;;-6.40;96.30;;;;;;4935310;29;20851;-77
2021/01/16 08:49:52;;;;;;;2.93;1.90;;;-6.20;96.30;;;;;;4925220;29;20511;-77
2021/01/16 08:52:47;;;;;;;3.77;2.77;;;-6.20;96.30;;;;;;4934929;29;20238;-77
2021/01/16 08:55:13;;;;;;;4.90;2.90;;;-6.30;96.30;;;;;;4920155;29;20881;-77
2021/01/16 08:57:39;;;;;;;3.27;2.87;;;-6.10;96.30;;;;;;4933475;29;20432;-78
2021/01/16 09:00:15;;;;;;;2.93;2.60;;;-6.10;96.30;;;;;;4931302;29;20700;-77
2021/01/16 09:02:42;;;;;;;4.53;3.07;;;-6.00;96.30;;;;;;4918213;29;21057;-78
2021/01/16 09:05:24;;;;;;;4.17;2.93;;;-5.80;96.30;;;;;;4904980;29;20468;-77
2021/01/16 09:07:51;;;;;;;2.67;2.30;;;-5.80;96.30;;;;;;4933926;29;20424;-79
2021/01/16 09:10:24;;;;;;;3.90;3.20;;;-5.80;96.30;;;;;;4921446;29;20471;-77
2021/01/16 09:12:50;;;;;;;3.73;2.43;;;-5.70;96.30;;;;;;4933653;29;21177;-77
2021/01/16 09:15:21;;;;;;;3.83;2.90;;;-5.70;96.30;;;;;;4933797;29;20434;-78
2021/01/16 09:18:12;;;;;;;5.33;3.37;;;-5.80;96.30;;;;;;4920619;29;20436;-77
2021/01/16 09:20:40;;;;;;;4.27;2.67;;;-5.70;96.30;;;;;;4932571;29;20936;-77
2021/01/16 09:23:26;;;;;;;5.07;2.60;;;-5.40;96.30;;;;;;4934352;29;20435;-77
2021/01/16 09:26:04;;;;;;;9.27;3.33;;;-5.20;96.30;;;;;;4927073;29;20510;-77
2021/01/16 09:28:45;;;;;;;3.50;2.93;;;-5.20;96.30;;;;;;4934305;29;20931;-77
2021/01/16 09:31:24;;;;;;;5.30;3.40;;;-5.10;96.30;;;;;;4920956;29;20494;-77
2021/01/16 09:33:52;;;;;;;4.40;3.30;;;-4.90;96.30;;;;;;4934339;29;20423;-77
2021/01/16 09:36:41;;;;;;;3.90;3.03;;;-4.80;96.30;;;;;;4934037;29;20506;-78
2021/01/16 09:39:15;;;;;;;4.40;3.30;;;-4.50;96.30;;;;;;4915838;29;20791;-78
2021/01/16 09:41:41;;;;;;;3.77;3.20;;;-4.40;96.30;;;;;;4930025;29;21980;-78
2021/01/16 09:44:06;;;;;;;3.80;3.10;;;-4.50;96.30;;;;;;4935263;29;20419;-78
2021/01/16 09:46:33;;;;;;;8.53;3.20;;;-4.40;96.30;;;;;;4921487;29;20188;-77
2021/01/16 09:48:59;;;;;;;5.33;3.43;;;-4.70;96.30;;;;;;4928037;29;20191;-78
2021/01/16 09:51:29;;;;;;;3.57;2.50;;;-4.50;96.30;;;;;;4936716;28;20479;-79
2021/01/16 09:54:11;;;;;;;3.90;3.17;;;-4.50;96.30;;;;;;4933385;29;20650;-78
2021/01/16 09:56:48;;;;;;;5.30;3.37;;;-4.60;96.30;;;;;;4919837;29;20811;-77
2021/01/16 09:59:23;;;;;;;5.07;3.53;;;-4.50;96.30;;;;;;4934115;29;20427;-77
2021/01/16 10:02:09;;;;;;;5.07;3.50;;;-4.60;96.30;;;;;;4919518;29;20554;-78
2021/01/16 10:04:43;;;;;;;4.60;3.40;;;-5.00;96.30;;;;;;4932964;29;20435;-79
2021/01/16 10:07:14;;;;;;;4.10;3.50;;;-5.00;96.30;;;;;;4917820;29;20436;-78
2021/01/16 10:09:48;;;;;;;4.37;3.60;;;-4.70;96.30;;;;;;4926053;29;20433;-78
2021/01/16 10:12:32;;;;;;;5.10;3.40;;;-4.60;96.30;;;;;;4916018;29;20474;-78
2021/01/16 10:15:01;;;;;;;6.30;5.00;;;-4.80;96.30;;;;;;4931178;29;21125;-78
2021/01/16 10:17:29;;;;;;;6.90;4.73;;;-4.70;96.30;;;;;;4940644;29;20439;-78
2021/01/16 10:20:03;;;;;;;6.83;4.70;;;-4.80;96.30;;;;;;4930739;29;20425;-78
2021/01/16 10:22:30;;;;;;;7.30;4.60;;;-4.70;96.30;;;;;;4923161;29;20474;-78
2021/01/16 10:24:59;;;;;;;7.10;5.60;;;-4.60;96.30;;;;;;4924468;29;20428;-76
2021/01/16 10:27:52;;;;;;;7.00;4.83;;;-4.40;96.30;;;;;;4935337;29;20483;-79
2021/01/16 10:30:19;;;;;;;5.23;4.30;;;-4.20;96.30;;;;;;4930357;29;20558;-76
2021/01/16 10:32:46;;;;;;;6.00;4.87;;;-4.40;96.30;;;;;;4926522;29;20785;-77
2021/01/16 10:35:18;;;;;;;4.70;3.97;;;-4.40;96.30;;;;;;4927361;28;21015;-77
2021/01/16 10:37:44;;;;;;;7.73;5.00;;;-4.20;96.30;;;;;;4936593;29;20455;-76
2021/01/16 10:40:10;;;;;;;4.80;3.70;;;-4.30;96.30;;;;;;4937766;29;20506;-78
2021/01/16 10:42:58;;;;;;;7.67;5.27;;;-4.20;96.30;;;;;;4937151;29;20194;-78
2021/01/16 10:45:30;;;;;;;7.60;5.30;;;-4.10;96.30;;;;;;4921616;29;20415;-78
2021/01/16 10:47:57;;;;;;;7.60;5.10;;;-4.20;96.30;;;;;;4938061;29;21035;-78
2021/01/16 10:50:27;;;;;;;10.27;5.67;;;-4.40;96.30;;;;;;4937729;29;20469;-78
2021/01/16 10:53:06;;;;;;;8.20;5.47;;;-4.20;96.30;;;;;;4937576;29;20415;-78
2021/01/16 10:55:54;;;;;;;5.60;4.43;;;-4.10;96.30;;;;;;4919675;29;20842;-79
2021/01/16 10:58:24;;;;;;;9.10;5.03;;;-4.00;96.30;;;;;;4918541;29;20404;-78
2021/01/16 11:00:57;;;;;;;6.43;4.80;;;-3.80;96.30;;;;;;4937389;29;20545;-77
2021/01/16 11:03:30;;;;;;;7.20;5.30;;;-3.80;96.30;;;;;;4937192;29;20404;-78
2021/01/16 11:06:04;;;;;;;7.03;5.47;;;-3.30;96.30;;;;;;4937179;29;20399;-78
2021/01/16 11:08:38;;;;;;;8.43;5.80;;;-3.50;96.30;;;;;;4920342;29;20431;-78
2021/01/16 11:11:26;;;;;;;11.00;5.80;;;-3.60;96.30;;;;;;4920109;29;20545;-78
2021/01/16 11:13:53;;;;;;;8.17;6.30;;;-3.20;96.30;;;;;;4970323;23;20554;-81
2021/01/16 11:16:22;;;;;;;9.17;6.50;;;-3.20;96.30;;;;;;4978529;28;20536;-81
2021/01/16 11:18:48;;;;;;;7.63;5.60;;;-3.30;96.30;;;;;;5008922;28;20405;-82
2021/01/16 11:21:36;;;;;;;9.07;6.57;;;-3.40;96.30;;;;;;4991904;28;20451;-81
2021/01/16 11:24:18;;;;;;;6.80;5.50;;;-3.00;96.30;;;;;;4976039;28;20956;-84
2021/01/16 11:26:47;;;;;;;9.97;6.77;;;-3.20;96.30;;;;;;4992148;28;20416;-84
2021/01/16 11:29:16;;;;;;;8.40;5.80;;;-3.30;96.30;;;;;;4981930;28;20457;-83
2021/01/16 11:31:47;;;;;;;7.67;5.60;;;-3.10;96.30;;;;;;4980035;28;20595;-83
2021/01/16 11:34:17;;;;;;;5.73;4.83;;;-3.30;96.30;;;;;;4973504;28;20449;-84
2021/01/16 11:36:56;;;;;;;7.80;5.47;;;-3.20;96.30;;;;;;4990606;28;20977;-83
2021/01/16 11:39:42;;;;;;;5.93;4.67;;;-3.30;96.30;;;;;;4974482;28;20425;-83
2021/01/16 11:42:07;;;;;;;6.17;5.17;;;-3.70;96.30;;;;;;4972378;28;20458;-83
2021/01/16 11:44:49;;;;;;;6.53;5.20;;;-3.70;96.30;;;;;;4983803;28;20457;-83
2021/01/16 11:47:14;;;;;;;8.20;5.77;;;-3.70;96.30;;;;;;4990434;28;20642;-84
2021/01/16 11:49:43;;;;;;;12.50;6.40;;;-3.80;96.30;;;;;;4977700;28;20466;-82
2021/01/16 11:52:08;;;;;;;7.20;5.07;;;-3.80;96.30;;;;;;4976852;28;20201;-82
2021/01/16 11:54:34;;;;;;;7.37;5.07;;;-4.20;96.30;;;;;;4994237;28;20437;-82
2021/01/16 11:57:00;;;;;;;8.67;5.43;;;-4.10;96.30;;;;;;4975032;28;20181;-82
2021/01/16 11:59:27;;;;;;;8.47;5.63;;;-4.10;96.30;;;;;;4985250;28;20272;-81
2021/01/16 12:01:55;;;;;;;7.33;5.87;;;-4.10;96.30;;;;;;4982465;28;20439;-83
2021/01/16 12:04:22;;;;;;;7.90;5.07;;;-4.20;96.30;;;;;;4959355;28;20434;-83
2021/01/16 12:06:48;;;;;;;7.97;6.10;;;-4.30;96.30;;;;;;4970120;28;20788;-83
2021/01/16 12:09:14;;;;;;;9.40;5.63;;;-4.30;96.30;;;;;;4978374;28;20483;-83
2021/01/16 12:11:41;;;;;;;6.57;5.93;;;-4.50;96.30;;;;;;4978693;28;20193;-83
2021/01/16 12:14:06;;;;;;;8.40;6.17;;;-4.60;96.30;;;;;;4978324;28;20483;-81
2021/01/16 12:16:36;;;;;;;7.17;5.60;;;-4.20;96.30;;;;;;4978027;28;20443;-80
2021/01/16 12:19:03;;;;;;;9.40;6.30;;;-4.30;96.30;;;;;;4978368;28;20178;-81
2021/01/16 12:21:29;;;;;;;7.33;5.77;;;-4.30;96.30;;;;;;4995951;28;20992;-81
2021/01/16 12:23:59;;;;;;;7.93;6.67;;;-4.20;96.30;;;;;;4975622;28;20449;-81
2021/01/16 12:26:25;;;;;;;9.00;6.27;;;-4.20;96.30;;;;;;4994169;28;20413;-81
2021/01/16 12:28:56;;;;;;;7.90;5.73;;;-4.20;96.30;;;;;;4977738;28;20424;-80
2021/01/16 12:31:24;;;;;;;11.50;6.60;;;-4.20;96.30;;;;;;4976145;28;20445;-81
2021/01/16 12:33:51;;;;;;;8.70;6.40;;;-4.20;96.30;;;;;;4995027;28;20440;-81
2021/01/16 12:36:18;;;;;;;11.60;7.57;;;-4.10;96.30;;;;;;4994374;28;20499;-81
2021/01/16 12:38:48;;;;;;;11.00;7.50;;;-4.10;96.30;;;;;;4994824;28;20420;-81
2021/01/16 12:41:24;;;;;;;16.90;7.63;;;-4.00;96.30;;;;;;4968974;28;20430;-80
2021/01/16 12:43:51;;;;;;;9.93;7.67;;;-4.00;96.30;;;;;;4959229;28;20444;-80
2021/01/16 12:46:19;;;;;;;11.30;8.23;;;-4.00;96.30;;;;;;4975906;28;20414;-81
2021/01/16 12:48:45;;;;;;;8.60;6.30;;;-4.00;96.30;;;;;;4960428;28;20430;-80
2021/01/16 12:51:14;;;;;;;10.17;7.60;;;-3.90;96.30;;;;;;4989134;28;20511;-80
2021/01/16 12:53:44;;;;;;;9.70;7.13;;;-4.00;96.30;;;;;;4979595;28;20420;-81
2021/01/16 12:56:17;;;;;;;10.43;6.80;;;-4.00;96.30;;;;;;4979799;28;20455;-80
2021/01/16 12:58:46;;;;;;;11.37;6.97;;;-4.20;96.30;;;;;;4980893;28;20419;-80
2021/01/16 13:01:12;;;;;;;11.07;7.80;;;-4.30;96.30;;;;;;4980017;28;20435;-80
2021/01/16 13:03:38;;;;;;;10.60;7.20;;;-4.40;96.30;;;;;;4995089;28;20433;-81
2021/01/16 13:06:04;;;;;;;12.13;7.40;;;-4.40;96.30;;;;;;4993114;28;20843;-80
2021/01/16 13:08:29;;;;;;;10.40;7.00;;;-4.40;96.30;;;;;;4994936;28;20215;-80
2021/01/16 13:10:56;;;;;;;10.00;7.90;;;-4.30;96.30;;;;;;4976370;28;20497;-79
2021/01/16 13:13:21;;;;;;;10.83;5.87;;;-4.30;96.30;;;;;;4993886;28;20567;-80
2021/01/16 13:15:48;;;;;;;9.20;7.00;;;-4.40;96.30;;;;;;4993575;28;20436;-80
2021/01/16 13:18:19;;;;;;;10.63;7.50;;;-4.40;96.30;;;;;;4991310;28;20593;-80
2021/01/16 13:20:50;;;;;;;7.53;6.23;;;-4.40;96.30;;;;;;4976654;28;20435;-80
2021/01/16 13:23:17;;;;;;;10.73;7.37;;;-4.60;96.30;;;;;;4992636;28;20420;-80
2021/01/16 13:25:44;;;;;;;9.30;7.03;;;-4.50;96.30;;;;;;4992210;28;20453;-80
2021/01/16 13:28:14;;;;;;;8.43;6.90;;;-4.40;96.30;;;;;;4994170;28;20417;-80
2021/01/16 13:30:41;;;;;;;7.50;6.40;;;-4.30;96.30;;;;;;4994962;28;20479;-80
2021/01/16 13:33:07;;;;;;;12.07;6.90;;;-4.20;96.30;;;;;;4974064;28;20422;-80
2021/01/16 13:35:33;;;;;;;12.53;7.13;;;-4.20;96.30;;;;;;4975998;28;20445;-80
2021/01/16 13:38:00;;;;;;;7.60;5.77;;;-4.20;96.30;;;;;;4994234;28;20509;-80
2021/01/16 13:40:27;;;;;;;7.00;6.00;;;-4.40;96.30;;;;;;4977637;28;20174;-80
2021/01/16 13:43:04;;;;;;;7.90;6.00;;;-4.60;96.30;;;;;;4995507;28;20520;-80
2021/01/16 13:45:30;;;;;;;9.43;6.10;;;-4.60;96.30;;;;;;4977494;28;20444;-81
2021/01/16 13:48:02;;;;;;;7.50;5.73;;;-4.70;96.30;;;;;;4995207;28;20413;-80
2021/01/16 13:50:34;;;;;;;8.70;6.60;;;-4.60;96.30;;;;;;4994113;28;20452;-79
2021/01/16 13:53:09;;;;;;;5.60;4.80;;;-4.80;96.30;;;;;;4994132;28;20774;-80
2021/01/16 13:55:35;;;;;;;11.70;5.87;;;-4.60;96.30;;;;;;4993662;28;20420;-79
2021/01/16 13:58:08;;;;;;;8.80;5.17;;;-4.60;96.30;;;;;;4995914;28;20405;-80
2021/01/16 14:00:45;;;;;;;6.50;5.90;;;-4.90;96.30;;;;;;4981144;28;20463;-79
2021/01/16 14:03:11;;;;;;;6.50;5.27;;;-4.90;96.30;;;;;;5000140;28;20411;-80
2021/01/16 14:05:38;;;;;;;7.00;5.07;;;-5.10;96.30;;;;;;4982239;28;20466;-81
2021/01/16 14:08:10;;;;;;;8.33;5.33;;;-5.10;96.30;;;;;;5003306;28;20444;-81
2021/01/16 14:10:36;;;;;;;7.40;5.87;;;-5.10;96.30;;;;;;4982017;28;20457;-81
2021/01/16 14:13:08;;;;;;;7.83;4.70;;;-5.20;96.30;;;;;;4999507;28;20923;-80
2021/01/16 14:15:34;;;;;;;8.53;5.97;;;-5.40;96.30;;;;;;4981157;28;20213;-80
2021/01/16 14:18:00;;;;;;;7.77;6.23;;;-5.20;96.30;;;;;;4999813;28;20431;-80
2021/01/16 14:20:35;;;;;;;8.67;6.40;;;-5.20;96.30;;;;;;5000385;28;20421;-80
2021/01/16 14:23:02;;;;;;;7.90;5.23;;;-5.20;96.30;;;;;;4999908;28;20176;-80
2021/01/16 14:25:30;;;;;;;6.10;5.07;;;-5.20;96.30;;;;;;4981250;28;20475;-80
2021/01/16 14:27:57;;;;;;;10.73;7.10;;;-5.10;96.30;;;;;;4998844;28;20413;-80
2021/01/16 14:30:34;;;;;;;11.50;6.50;;;-5.20;96.30;;;;;;4982253;28;20484;-80
2021/01/16 14:33:01;;;;;;;8.10;5.50;;;-5.00;96.30;;;;;;4978938;28;20413;-80
2021/01/16 14:35:31;;;;;;;8.80;5.40;;;-5.00;96.30;;;;;;4998560;28;20775;-80
2021/01/16 14:37:58;;;;;;;6.83;4.57;;;-4.90;96.30;;;;;;4982835;28;20413;-80
2021/01/16 14:40:31;;;;;;;7.80;5.10;;;-5.00;96.30;;;;;;4983855;28;20476;-80
2021/01/16 14:42:58;;;;;;;7.23;4.90;;;-5.10;96.30;;;;;;5001849;28;20423;-80
2021/01/16 14:45:24;;;;;;;8.40;5.33;;;-5.20;96.30;;;;;;5002280;28;20436;-81
2021/01/16 14:47:50;;;;;;;6.93;5.90;;;-5.20;96.30;;;;;;5002085;28;20471;-80
2021/01/16 14:50:15;;;;;;;8.50;5.90;;;-5.00;96.30;;;;;;4986716;28;20180;-83
2021/01/16 14:52:41;;;;;;;6.60;5.00;;;-5.10;96.30;;;;;;5005196;28;20180;-81
2021/01/16 14:55:11;;;;;;;8.90;5.57;;;-5.20;96.30;;;;;;5006181;28;20201;-81
2021/01/16 14:57:45;;;;;;;7.03;5.47;;;-5.30;96.30;;;;;;4992552;28;20185;-80
2021/01/16 15:00:21;;;;;;;6.83;5.30;;;-5.50;96.30;;;;;;4992175;28;20445;-80
2021/01/16 15:03:04;;;;;;;9.63;5.40;;;-5.50;96.30;;;;;;4990011;28;20492;-80
2021/01/16 15:05:34;;;;;;;6.63;5.07;;;-5.60;96.30;;;;;;4983412;28;20508;-80
2021/01/16 15:08:04;;;;;;;8.87;5.27;;;-5.60;96.30;;;;;;4983941;28;20417;-80
2021/01/16 15:10:31;;;;;;;8.20;5.53;;;-5.60;96.30;;;;;;4984422;28;20475;-79
2021/01/16 15:12:57;;;;;;;9.40;5.50;;;-5.80;96.30;;;;;;4988980;28;20416;-80
2021/01/16 15:15:22;;;;;;;6.90;5.57;;;-5.90;96.30;;;;;;4986362;28;20453;-80
2021/01/16 15:17:58;;;;;;;7.93;5.50;;;-5.90;96.30;;;;;;5027473;28;20231;-80
2021/01/16 15:20:23;;;;;;;7.97;5.20;;;-6.00;96.30;;;;;;4995625;28;20481;-80
2021/01/16 15:22:49;;;;;;;7.13;5.33;;;-6.00;96.30;;;;;;4982237;28;20452;-80
2021/01/16 15:25:15;;;;;;;6.03;4.57;;;-6.00;96.30;;;;;;4978412;28;20204;-80
2021/01/16 15:27:41;;;;;;;8.40;5.27;;;-6.10;96.30;;;;;;4998632;28;20428;-80
2021/01/16 15:30:07;;;;;;;7.20;5.50;;;-6.10;96.30;;;;;;4982705;28;20426;-80
2021/01/16 15:32:33;;;;;;;8.23;5.03;;;-6.20;96.30;;;;;;4964573;28;20205;-80
2021/01/16 15:35:06;;;;;;;11.00;5.63;;;-6.20;96.30;;;;;;4998298;28;20437;-80
2021/01/16 15:37:32;;;;;;;7.93;5.40;;;-6.30;96.30;;;;;;4997622;28;20181;-80
2021/01/16 15:39:58;;;;;;;8.33;4.93;;;-6.50;96.30;;;;;;4998062;28;20412;-80
2021/01/16 15:42:29;;;;;;;38.13;15.10;;;-6.50;96.30;;;;;;4968275;28;20237;-80
2021/01/16 15:45:08;;;;;;;8.37;5.80;;;-6.50;96.30;;;;;;4980389;28;20940;-80
2021/01/16 15:47:43;;;;;;;7.20;5.30;;;-6.70;96.30;;;;;;4981177;28;20421;-80
2021/01/16 15:50:10;;;;;;;7.70;5.63;;;-6.80;96.30;;;;;;4964909;28;20436;-79
2021/01/16 15:52:37;;;;;;;6.63;4.70;;;-7.00;96.30;;;;;;4997907;28;20443;-79
2021/01/16 15:55:12;;;;;;;8.13;5.60;;;-7.10;96.30;;;;;;4987159;28;20451;-81
2021/01/16 15:57:39;;;;;;;9.07;5.10;;;-7.30;96.30;;;;;;4999104;28;20423;-78
2021/01/16 16:00:37;;;;;;;8.47;5.70;;;-7.30;96.30;;;;;;4999372;28;20425;-78
2021/01/16 16:03:06;;;;;;;10.73;5.67;;;-7.40;96.30;;;;;;4969117;28;20563;-77
2021/01/16 16:05:33;;;;;;;11.43;5.27;;;-7.50;96.30;;;;;;4974249;28;20465;-79
2021/01/16 16:07:58;;;;;;;8.40;5.80;;;-7.50;96.30;;;;;;4957936;28;20428;-78
2021/01/16 16:10:24;;;;;;;9.10;5.87;;;-7.60;96.30;;;;;;4981191;28;20827;-79
2021/01/16 16:12:57;;;;;;;10.43;5.73;;;-7.90;96.30;;;;;;4994094;28;20178;-79
2021/01/16 16:15:24;;;;;;;9.93;5.60;;;-8.00;96.30;;;;;;4994090;28;20209;-79
2021/01/16 16:17:50;;;;;;;7.07;5.70;;;-7.90;96.30;;;;;;4997551;28;20440;-78
2021/01/16 16:20:17;;;;;;;8.90;5.77;;;-7.80;96.30;;;;;;4979184;28;20421;-80
2021/01/16 16:22:42;;;;;;;10.00;6.00;;;-7.70;96.30;;;;;;4996958;28;20265;-80
2021/01/16 16:25:08;;;;;;;10.73;6.60;;;-7.70;96.30;;;;;;4981110;28;20456;-80
2021/01/16 16:27:34;;;;;;;11.60;6.20;;;-7.60;96.30;;;;;;4995585;28;20182;-79
2021/01/16 16:30:05;;;;;;;8.80;6.10;;;-7.60;96.30;;;;;;4966989;28;20409;-82
2021/01/16 16:32:30;;;;;;;10.00;6.47;;;-7.50;96.30;;;;;;4993583;28;20669;-81
2021/01/16 16:34:55;;;;;;;6.97;5.93;;;-7.50;96.30;;;;;;4970242;28;20425;-81
2021/01/16 16:37:21;;;;;;;11.37;6.40;;;-7.50;96.30;;;;;;4969939;28;20186;-82
2021/01/16 16:39:46;;;;;;;10.50;6.57;;;-7.40;96.30;;;;;;4993164;28;20193;-81
2021/01/16 16:42:16;;;;;;;10.93;7.70;;;-7.30;96.30;;;;;;4996654;28;20197;-81
2021/01/16 16:44:41;;;;;;;9.40;6.13;;;-7.20;96.30;;;;;;4998170;28;20655;-81
2021/01/16 16:47:07;;;;;;;12.50;7.63;;;-7.30;96.30;;;;;;4987027;28;20497;-81
2021/01/16 16:49:32;;;;;;;11.40;7.57;;;-7.40;96.30;;;;;;4968380;28;20190;-80
2021/01/16 16:51:59;;;;;;;10.27;6.60;;;-7.40;96.30;;;;;;4985898;28;20204;-81
2021/01/16 16:54:25;;;;;;;12.30;7.10;;;-7.50;96.30;;;;;;4972782;28;20537;-80
2021/01/16 16:56:50;;;;;;;10.10;6.10;;;-7.50;96.30;;;;;;4982764;28;20420;-81
2021/01/16 16:59:16;;;;;;;8.33;6.93;;;-7.60;96.30;;;;;;4984225;28;20242;-81
2021/01/16 17:01:42;;;;;;;12.83;7.00;;;-7.50;96.30;;;;;;4989127;28;20185;-81
2021/01/16 17:04:07;;;;;;;9.53;6.80;;;-7.40;96.30;;;;;;4991787;28;20548;-80